Главная страница
METAR-TAF:

METAR-TAF

Аэропорты :

Тиниан, Марианские острова, США

широта: 14-59N, долгота: 145-37E, высота над уровнем моря: 82 м

Текущие метеонаблюдения

Эта сводка был подготовлена 1 час и 7 минут назад, в 02:50 UTC
Ветер 10 Узел от восточно-северо-восточный
Температура 30°C
Влажность 79%
Давление 1013 hPa
Видимость: 11.3 км
Отдельные облака на высоте 2200 фута

METAR: PGWT 240250Z 07010KT 7SM SCT022 30/26 A2990

Время: 13:57 (03:57 UTC)

Прогноз

Эта сводка был подготовлена 4 часа и 32 минут назад, в 23:25 UTC
Прогноз действительный с 24-го 00 UTC до 24-го 24 UTC
Ветер 13 Узел от восточный
Видимость: 10 км
Отдельные облака на высоте 2500 фута
Отдельные облака на высоте 7000 фута
ливни в окрестностях,

TAF: PGWT 232325Z 2400/2424 08013KT P6SM VCSH SCT025 SCT070

Метеонаблюдения и прогнозы для более 4000 аэропортов (сводки METAR и TAF).

Имеющиеся станции представлены на карте желтыми и красными точками.

Чтобы увидеть название станции, наведите на нее мышь.

Затем щелкните, чтобы увидеть метеонаблюдения и метеопрогнозы.

Управление картой: чтобы увеличить масштаб, щелкните зеленые кнопки с черным крестиком; чтобы уменьшить масштаб, щелкните зеленую кнопку с тире; для просмотра соседних карт щелкайте зеленые стрелки.


METAR-TAF: